首页
METAR-TAF:

METAR-TAF

机场 :

巴查·汗国际机场

白沙瓦, 巴基斯坦

纬度: 34-01N, 经度: 071-35E, 海拔: 359米

当前天气观测

该预报发布于57分钟前的15:00 UTC
风速4节,风向东南
温度 22°C
湿度 46%
气压 1013 hPa
能見度: 8000
少量云层高于10000英尺
散云层高于20000英尺

METAR: OPPS 081500Z 13004KT 8000 HZ FEW100 SCT200 22/10 Q1013

时间: 20:57 (15:57 UTC)

预报

该预报发布于6小时和17分钟前的09:40 UTC
预报有效从08日的 12点(UTC)到 09日的 18点(UTC)
风速10节,风向南转西南
能見度: 4000
少量云层高于4000英尺
散云层高于10000英尺
多云层高于20000英尺
短暂存在
从 09日的 08点(UTC)到 09日的 12点(UTC)
散云层高于4000英尺
多云层高于10000英尺
附近有雷暴
短暂存在
从 09日的 12点(UTC)到 09日的 18点(UTC)
散云层高于4000英尺
多云层高于10000英尺
雷暴, 雨

TAF: OPPS 080940Z 0812/0918 21010KT 4000 HZ FEW040 SCT100 BKN200 TEMPO 0908/0912 VCTS FEW030TCU/CB SCT040 BKN100 TEMPO 0912/0918 TSRA FEW030TCU/CB SCT040 BKN100

超过4000个机场的气象观测和天气预报(METAR&TAF报告)。

可查询的气象台以黄色和红色小点在地图上表示。

将鼠标移到小点上方,可查看气象台名称。

然后点击查看天气观测和预报。

如需切换地图:点击带黑十字的绿色按钮放大地图;点击带横线的绿色按钮缩小地图;或者点击绿色箭头查看邻近地区的地图。


METAR-TAF: